createdAt,value
2016-09-30T00:00:46.619Z,0
2016-09-30T00:01:46.611Z,0
2016-09-30T00:02:46.658Z,0
2016-09-30T00:03:46.684Z,0
2016-09-30T00:04:46.681Z,0
2016-09-30T00:05:46.709Z,0
2016-09-30T00:06:46.735Z,0
2016-09-30T00:07:46.768Z,0
2016-09-30T00:08:46.772Z,0
2016-09-30T00:09:46.794Z,0
2016-09-30T00:10:46.806Z,0
2016-09-30T00:11:46.836Z,0
2016-09-30T00:12:46.840Z,0
2016-09-30T00:13:46.884Z,0
2016-09-30T00:14:46.902Z,0
2016-09-30T00:15:46.904Z,0
2016-09-30T00:16:46.953Z,0
2016-09-30T00:17:46.945Z,0
2016-09-30T00:18:46.960Z,0
2016-09-30T00:19:46.996Z,0
2016-09-30T00:20:47.023Z,0
2016-09-30T00:21:47.015Z,0
2016-09-30T00:22:47.059Z,0
2016-09-30T00:23:47.073Z,0
2016-09-30T00:24:47.110Z,0
2016-09-30T00:25:47.111Z,0
2016-09-30T00:26:47.112Z,0
2016-09-30T00:27:47.138Z,0
2016-09-30T00:28:47.172Z,0
2016-09-30T00:29:47.162Z,0
2016-09-30T00:30:47.194Z,0
2016-09-30T00:31:47.241Z,0
2016-09-30T00:32:47.229Z,0
2016-09-30T00:33:47.278Z,0
2016-09-30T00:34:47.284Z,0
2016-09-30T00:35:47.307Z,0
2016-09-30T00:36:47.302Z,0
2016-09-30T00:37:47.346Z,0
2016-09-30T00:38:47.368Z,0
2016-09-30T00:39:47.377Z,0
2016-09-30T00:40:47.392Z,0
2016-09-30T00:41:47.429Z,0
2016-09-30T00:42:47.425Z,0
2016-09-30T00:43:47.455Z,0
2016-09-30T00:44:47.481Z,0
2016-09-30T00:45:47.509Z,0
2016-09-30T00:46:47.517Z,0
2016-09-30T00:47:47.554Z,0
2016-09-30T00:48:47.558Z,0
2016-09-30T00:49:47.591Z,0
2016-09-30T00:50:47.601Z,0
2016-09-30T00:51:47.615Z,0
2016-09-30T00:52:47.657Z,0
2016-09-30T00:53:47.653Z,0
2016-09-30T00:54:47.681Z,0
2016-09-30T00:55:47.695Z,0
2016-09-30T00:56:47.715Z,0
2016-09-30T00:57:47.735Z,0
2016-09-30T00:58:47.763Z,0
2016-09-30T00:59:47.789Z,0
2016-09-30T01:00:47.821Z,0
2016-09-30T01:01:47.796Z,0
2016-09-30T01:02:47.851Z,0
2016-09-30T01:03:47.852Z,0
2016-09-30T01:04:47.863Z,0
2016-09-30T01:05:47.900Z,0
2016-09-30T01:06:47.900Z,0
2016-09-30T01:07:47.940Z,0
2016-09-30T01:08:47.944Z,0
2016-09-30T01:09:47.986Z,0
2016-09-30T01:10:47.992Z,0
2016-09-30T01:11:48.032Z,0
2016-09-30T01:12:48.025Z,0
2016-09-30T01:13:48.067Z,0
2016-09-30T01:14:48.079Z,0
2016-09-30T01:15:48.112Z,0
2016-09-30T01:16:48.138Z,0
2016-09-30T01:17:48.147Z,0
2016-09-30T01:18:48.146Z,0
2016-09-30T01:19:48.168Z,0
2016-09-30T01:20:48.198Z,0
2016-09-30T01:21:48.211Z,0
2016-09-30T01:22:48.232Z,0
2016-09-30T01:23:48.248Z,0
2016-09-30T01:24:48.278Z,0
2016-09-30T01:25:48.287Z,0
2016-09-30T01:26:48.298Z,0
2016-09-30T01:27:48.328Z,0
2016-09-30T01:28:48.353Z,0
2016-09-30T01:29:48.379Z,0
2016-09-30T01:30:48.390Z,0
2016-09-30T01:31:48.429Z,0
2016-09-30T01:32:48.414Z,0
2016-09-30T01:33:48.461Z,0
2016-09-30T01:34:48.476Z,0
2016-09-30T01:35:48.489Z,0
2016-09-30T01:36:48.511Z,0
2016-09-30T01:37:48.531Z,0
2016-09-30T01:38:48.561Z,0
2016-09-30T01:39:48.566Z,0
2016-09-30T01:40:48.601Z,0
2016-09-30T01:41:48.632Z,0
2016-09-30T01:42:48.634Z,0
2016-09-30T01:43:48.640Z,0
2016-09-30T01:44:48.683Z,0
2016-09-30T01:45:48.681Z,0
2016-09-30T01:46:48.708Z,0
2016-09-30T01:47:49.087Z,0
2016-09-30T01:48:48.741Z,0
2016-09-30T01:49:48.775Z,0
2016-09-30T01:50:48.784Z,0
2016-09-30T01:51:48.816Z,0
2016-09-30T01:52:48.834Z,0
2016-09-30T01:53:48.830Z,0
2016-09-30T01:54:48.881Z,0
2016-09-30T01:55:48.911Z,0
2016-09-30T01:56:48.920Z,0
2016-09-30T01:57:48.943Z,0
2016-09-30T01:58:48.938Z,0
2016-09-30T01:59:48.988Z,0
2016-09-30T02:00:48.995Z,0
2016-09-30T02:01:49.029Z,0
2016-09-30T02:02:49.041Z,0
2016-09-30T02:03:49.067Z,0
2016-09-30T02:04:49.079Z,0
2016-09-30T02:05:49.088Z,0
2016-09-30T02:06:49.098Z,0
2016-09-30T02:07:49.125Z,0
2016-09-30T02:08:49.137Z,0
2016-09-30T02:09:49.191Z,0
2016-09-30T02:10:49.190Z,0
2016-09-30T02:11:49.193Z,0
2016-09-30T02:12:49.224Z,0
2016-09-30T02:13:49.265Z,0
2016-09-30T02:14:49.269Z,0
2016-09-30T02:15:49.296Z,0
2016-09-30T02:16:49.310Z,0
2016-09-30T02:17:49.327Z,0
2016-09-30T02:18:49.358Z,0
2016-09-30T02:19:49.370Z,0
2016-09-30T02:20:49.389Z,0
2016-09-30T02:21:49.401Z,0
2016-09-30T02:22:49.440Z,0
2016-09-30T02:23:49.459Z,0
2016-09-30T02:24:49.477Z,0
2016-09-30T02:25:49.479Z,0
2016-09-30T02:26:49.520Z,0
2016-09-30T02:27:49.531Z,0
2016-09-30T02:28:49.548Z,0
2016-09-30T02:29:49.575Z,0
2016-09-30T02:30:49.600Z,0
2016-09-30T02:31:49.603Z,0
2016-09-30T02:32:49.970Z,0
2016-09-30T02:33:49.636Z,0
2016-09-30T02:34:49.646Z,0
2016-09-30T02:35:49.694Z,0
2016-09-30T02:36:49.715Z,0
2016-09-30T02:37:49.729Z,0
2016-09-30T02:38:49.762Z,0
2016-09-30T02:39:49.787Z,0
2016-09-30T02:40:49.772Z,0
2016-09-30T02:41:49.804Z,0
2016-09-30T02:42:49.830Z,0
2016-09-30T02:43:49.868Z,0
2016-09-30T02:44:49.871Z,0
2016-09-30T02:45:49.893Z,0
2016-09-30T02:46:49.921Z,0
2016-09-30T02:47:49.936Z,0
2016-09-30T02:48:49.945Z,0
2016-09-30T02:49:49.972Z,0
2016-09-30T02:50:49.990Z,0
2016-09-30T02:51:50.011Z,0
2016-09-30T02:52:50.017Z,0
2016-09-30T02:53:50.061Z,0
2016-09-30T02:54:50.071Z,0
2016-09-30T02:55:50.087Z,0
2016-09-30T02:56:50.107Z,0
2016-09-30T02:57:50.137Z,0
2016-09-30T02:58:50.148Z,0
2016-09-30T02:59:50.183Z,0
2016-09-30T03:00:50.188Z,0
2016-09-30T03:01:50.212Z,0
2016-09-30T03:02:50.227Z,0
2016-09-30T03:03:50.236Z,0
2016-09-30T03:04:50.277Z,0
2016-09-30T03:05:50.280Z,0
2016-09-30T03:06:50.328Z,0
2016-09-30T03:07:50.328Z,0
2016-09-30T03:08:50.341Z,0
2016-09-30T03:09:50.363Z,0
2016-09-30T03:10:50.377Z,0
2016-09-30T03:11:50.420Z,0
2016-09-30T03:12:50.414Z,0
2016-09-30T03:13:50.442Z,0
2016-09-30T03:14:50.453Z,0
2016-09-30T03:15:50.510Z,0
2016-09-30T03:16:50.502Z,0
2016-09-30T03:17:50.545Z,0
2016-09-30T03:18:50.541Z,0
2016-09-30T03:19:50.579Z,0
2016-09-30T03:20:50.606Z,0
2016-09-30T03:21:50.606Z,0
2016-09-30T03:22:50.643Z,0
2016-09-30T03:23:50.638Z,0
2016-09-30T03:24:50.678Z,0
2016-09-30T03:25:50.695Z,0
2016-09-30T03:26:50.679Z,0
2016-09-30T03:27:50.742Z,0
2016-09-30T03:28:50.733Z,0
2016-09-30T03:29:50.764Z,0
2016-09-30T03:30:50.788Z,0
2016-09-30T03:31:50.810Z,0
2016-09-30T03:32:50.819Z,0
2016-09-30T03:33:50.846Z,0
2016-09-30T03:34:50.857Z,0
2016-09-30T03:35:50.875Z,0
2016-09-30T03:36:50.890Z,0
2016-09-30T03:37:50.921Z,0
2016-09-30T03:38:50.927Z,0
2016-09-30T03:39:50.974Z,0
2016-09-30T03:40:50.973Z,0
2016-09-30T03:41:51.013Z,0
2016-09-30T03:42:51.021Z,0
2016-09-30T03:43:51.035Z,0
2016-09-30T03:44:51.050Z,0
2016-09-30T03:45:51.071Z,0
2016-09-30T03:46:51.088Z,0
2016-09-30T03:47:51.128Z,0
2016-09-30T03:48:51.123Z,0
2016-09-30T03:49:51.160Z,0
2016-09-30T03:50:51.180Z,0
2016-09-30T03:51:51.199Z,0
2016-09-30T03:52:51.224Z,0
2016-09-30T03:53:51.257Z,0
2016-09-30T03:54:51.253Z,0
2016-09-30T03:55:51.288Z,0
2016-09-30T03:56:51.310Z,0
2016-09-30T03:57:51.311Z,0
2016-09-30T03:58:51.357Z,0
2016-09-30T03:59:51.360Z,0
2016-09-30T04:01:22.699Z,0
2016-09-30T04:01:51.429Z,0
2016-09-30T04:02:51.428Z,0
2016-09-30T04:03:51.473Z,0
2016-09-30T04:04:51.478Z,0
2016-09-30T04:05:51.496Z,0
2016-09-30T04:06:51.504Z,0
2016-09-30T04:07:51.526Z,0
2016-09-30T04:08:51.552Z,0
2016-09-30T04:09:51.593Z,0
2016-09-30T04:10:51.609Z,0
2016-09-30T04:11:51.616Z,0
2016-09-30T04:12:51.641Z,0
2016-09-30T04:13:51.653Z,0
2016-09-30T04:14:51.679Z,0
2016-09-30T04:15:51.712Z,0
2016-09-30T04:16:51.717Z,0
2016-09-30T04:17:51.734Z,0
2016-09-30T04:18:51.754Z,0
2016-09-30T04:19:51.782Z,0
2016-09-30T04:20:51.795Z,0
2016-09-30T04:21:51.822Z,0
2016-09-30T04:22:51.821Z,0
2016-09-30T04:23:51.871Z,0
2016-09-30T04:24:51.873Z,0
2016-09-30T04:25:51.893Z,0
2016-09-30T04:26:51.911Z,0
2016-09-30T04:27:51.941Z,0
2016-09-30T04:28:51.982Z,0
2016-09-30T04:29:51.970Z,0
2016-09-30T04:30:52.008Z,0
2016-09-30T04:31:52.016Z,0
2016-09-30T04:32:52.035Z,0
2016-09-30T04:33:52.055Z,0
2016-09-30T04:34:52.087Z,0
2016-09-30T04:35:52.098Z,0
2016-09-30T04:36:52.123Z,0
2016-09-30T04:37:52.154Z,0
2016-09-30T04:38:52.170Z,0
2016-09-30T04:39:52.176Z,0
2016-09-30T04:40:52.203Z,0
2016-09-30T04:41:52.221Z,0
2016-09-30T04:42:52.248Z,0
2016-09-30T04:43:52.252Z,0
2016-09-30T04:44:52.289Z,0
2016-09-30T04:45:52.302Z,0
2016-09-30T04:46:52.335Z,0
2016-09-30T04:47:52.321Z,0
2016-09-30T04:48:52.351Z,0
2016-09-30T04:49:52.375Z,0
2016-09-30T04:50:52.380Z,0
2016-09-30T04:51:52.415Z,0
2016-09-30T04:52:52.451Z,0
2016-09-30T04:53:52.431Z,0
2016-09-30T04:54:52.462Z,0
2016-09-30T04:55:52.492Z,0
2016-09-30T04:56:52.523Z,0
2016-09-30T04:57:52.853Z,0
2016-09-30T04:58:52.547Z,0
2016-09-30T04:59:52.574Z,0
2016-09-30T05:00:52.602Z,0
2016-09-30T05:01:52.616Z,0
2016-09-30T05:02:52.650Z,0
2016-09-30T05:03:52.662Z,0
2016-09-30T05:04:52.676Z,0
2016-09-30T05:05:52.700Z,0
2016-09-30T05:06:52.708Z,0
2016-09-30T05:07:52.755Z,0
2016-09-30T05:08:52.758Z,0
2016-09-30T05:09:52.784Z,0
2016-09-30T05:10:52.785Z,0
2016-09-30T05:11:52.821Z,0
2016-09-30T05:12:52.837Z,0
2016-09-30T05:13:52.859Z,0
2016-09-30T05:14:52.857Z,0
2016-09-30T05:15:52.888Z,0
2016-09-30T05:16:52.926Z,0
2016-09-30T05:17:52.937Z,0
2016-09-30T05:18:52.954Z,0
2016-09-30T05:19:52.983Z,0
2016-09-30T05:20:52.989Z,0
2016-09-30T05:21:53.020Z,0
2016-09-30T05:22:53.032Z,0
2016-09-30T05:23:53.060Z,0
2016-09-30T05:24:53.047Z,0
2016-09-30T05:25:53.101Z,0
2016-09-30T05:26:53.139Z,0
2016-09-30T05:27:53.138Z,0
2016-09-30T05:28:53.164Z,0
2016-09-30T05:29:53.188Z,0
2016-09-30T05:30:53.201Z,0
2016-09-30T05:31:53.227Z,0
2016-09-30T05:32:53.228Z,0
2016-09-30T05:33:53.252Z,0
2016-09-30T05:34:53.265Z,0
2016-09-30T05:35:53.307Z,0
2016-09-30T05:36:53.307Z,0
2016-09-30T05:37:53.337Z,0
2016-09-30T05:38:53.358Z,0
2016-09-30T05:39:53.363Z,0
2016-09-30T05:40:53.370Z,0
2016-09-30T05:41:53.410Z,5
2016-09-30T05:42:53.441Z,5
2016-09-30T05:43:53.461Z,5
2016-09-30T05:44:53.486Z,5
2016-09-30T05:45:53.515Z,5
2016-09-30T05:46:53.511Z,5
2016-09-30T05:47:53.521Z,5
2016-09-30T05:48:53.565Z,5
2016-09-30T05:49:53.576Z,5
2016-09-30T05:50:53.579Z,5
2016-09-30T05:51:53.610Z,5
2016-09-30T05:52:53.631Z,5
2016-09-30T05:53:53.662Z,10
2016-09-30T05:54:53.698Z,10
2016-09-30T05:55:54.002Z,10
2016-09-30T05:56:53.721Z,15
2016-09-30T05:57:53.747Z,15
2016-09-30T05:58:53.762Z,15
2016-09-30T05:59:53.772Z,15
2016-09-30T06:00:53.779Z,15
2016-09-30T06:01:53.797Z,15
2016-09-30T06:02:53.832Z,15
2016-09-30T06:03:53.863Z,15
2016-09-30T06:04:53.869Z,15
2016-09-30T06:05:53.877Z,15
2016-09-30T06:06:53.902Z,15
2016-09-30T06:07:53.944Z,15
2016-09-30T06:08:53.978Z,15
2016-09-30T06:09:53.951Z,20
2016-09-30T06:10:53.973Z,20
2016-09-30T06:11:54.003Z,25
2016-09-30T06:12:54.028Z,25
2016-09-30T06:13:54.044Z,25
2016-09-30T06:14:54.057Z,30
2016-09-30T06:15:54.087Z,35
2016-09-30T06:16:54.119Z,40
2016-09-30T06:17:54.121Z,40
2016-09-30T06:18:54.152Z,40
2016-09-30T06:19:54.182Z,40
2016-09-30T06:20:54.194Z,40
2016-09-30T06:21:54.218Z,40
2016-09-30T06:22:54.222Z,40
2016-09-30T06:23:54.251Z,45
2016-09-30T06:24:54.277Z,45
2016-09-30T06:25:54.273Z,50
2016-09-30T06:26:54.306Z,50
2016-09-30T06:27:54.336Z,50
2016-09-30T06:28:54.349Z,50
2016-09-30T06:29:54.368Z,50
2016-09-30T06:30:54.389Z,50
2016-09-30T06:31:54.416Z,55
2016-09-30T06:32:54.441Z,55
2016-09-30T06:33:54.437Z,55
2016-09-30T06:34:54.467Z,55
2016-09-30T06:35:54.489Z,55
2016-09-30T06:36:54.497Z,55
2016-09-30T06:37:54.522Z,55
2016-09-30T06:38:54.542Z,60
2016-09-30T06:39:54.575Z,60
2016-09-30T06:40:54.600Z,60
2016-09-30T06:41:54.614Z,60
2016-09-30T06:42:54.630Z,65
2016-09-30T06:43:54.660Z,65
2016-09-30T06:44:54.684Z,65
2016-09-30T06:45:54.680Z,60
2016-09-30T06:46:54.721Z,60
2016-09-30T06:47:54.722Z,60
2016-09-30T06:48:54.759Z,65
2016-09-30T06:49:54.773Z,65
2016-09-30T06:50:54.790Z,65
2016-09-30T06:51:54.821Z,65
2016-09-30T06:52:54.813Z,65
2016-09-30T06:53:54.860Z,65
2016-09-30T06:54:54.881Z,70
2016-09-30T06:55:54.911Z,70
2016-09-30T06:56:54.913Z,70
2016-09-30T06:57:54.915Z,70
2016-09-30T06:58:54.939Z,70
2016-09-30T06:59:54.974Z,70
2016-09-30T07:00:55.008Z,75
2016-09-30T07:01:55.017Z,75
2016-09-30T07:02:55.011Z,75
2016-09-30T07:03:55.038Z,75
2016-09-30T07:04:55.062Z,75
2016-09-30T07:06:55.127Z,75
2016-09-30T07:07:55.144Z,75
2016-09-30T07:08:55.153Z,75
2016-09-30T07:09:55.169Z,85
2016-09-30T07:10:55.209Z,80
2016-09-30T07:11:55.244Z,85
2016-09-30T07:12:55.233Z,85
2016-09-30T07:13:55.279Z,85
2016-09-30T07:14:55.274Z,85
2016-09-30T07:15:55.293Z,90
2016-09-30T07:16:55.317Z,90
2016-09-30T07:17:55.335Z,90
2016-09-30T07:18:55.365Z,95
2016-09-30T07:19:55.378Z,95
2016-09-30T07:20:55.384Z,100
2016-09-30T07:21:55.409Z,100
2016-09-30T07:22:55.432Z,100
2016-09-30T07:23:55.464Z,105
2016-09-30T07:24:55.486Z,105
2016-09-30T07:25:55.510Z,105
2016-09-30T07:26:55.528Z,105
2016-09-30T07:27:55.539Z,105
2016-09-30T07:28:55.563Z,105
2016-09-30T07:29:55.582Z,110
2016-09-30T07:30:55.586Z,115
2016-09-30T07:31:55.615Z,130
2016-09-30T07:32:55.651Z,120
2016-09-30T07:33:55.666Z,115
2016-09-30T07:34:55.680Z,110
2016-09-30T07:35:55.711Z,105
2016-09-30T07:36:55.720Z,95
2016-09-30T07:37:55.754Z,90
2016-09-30T07:38:55.781Z,85
2016-09-30T07:39:55.801Z,85
2016-09-30T07:40:55.806Z,80
2016-09-30T07:41:55.847Z,80
2016-09-30T07:42:55.839Z,75
2016-09-30T07:43:55.870Z,70
2016-09-30T07:44:55.899Z,65
2016-09-30T07:45:55.901Z,65
2016-09-30T07:46:55.916Z,65
2016-09-30T07:47:55.948Z,70
2016-09-30T07:48:55.964Z,70
2016-09-30T07:49:56.009Z,75
2016-09-30T07:50:56.002Z,70
2016-09-30T07:51:56.072Z,70
2016-09-30T07:52:56.126Z,70
2016-09-30T07:53:56.100Z,70
2016-09-30T07:54:56.094Z,65
2016-09-30T07:55:56.126Z,70
2016-09-30T07:56:56.120Z,65
2016-09-30T07:57:56.153Z,65
2016-09-30T07:59:56.193Z,65
2016-09-30T08:00:56.220Z,60
2016-09-30T08:01:56.239Z,65
2016-09-30T08:02:56.279Z,65
2016-09-30T08:03:56.292Z,65
2016-09-30T08:04:56.319Z,60
2016-09-30T08:05:56.311Z,65
2016-09-30T08:06:56.343Z,65
2016-09-30T08:07:56.373Z,70
2016-09-30T08:08:56.392Z,75
2016-09-30T08:09:56.401Z,75
2016-09-30T08:10:56.440Z,75
2016-09-30T08:11:56.451Z,80
2016-09-30T08:12:56.476Z,85
2016-09-30T08:13:56.484Z,85
2016-09-30T08:14:56.506Z,85
2016-09-30T08:15:56.532Z,85
2016-09-30T08:16:56.555Z,90
2016-09-30T08:17:56.586Z,100
2016-09-30T08:18:56.577Z,105
2016-09-30T08:19:56.614Z,100
2016-09-30T08:20:56.633Z,100
2016-09-30T08:21:56.652Z,100
2016-09-30T08:22:56.671Z,110
2016-09-30T08:23:56.678Z,110
2016-09-30T08:24:56.737Z,120
2016-09-30T08:25:56.732Z,115
2016-09-30T08:26:56.740Z,120
2016-09-30T08:27:56.771Z,125
2016-09-30T08:28:57.122Z,120
2016-09-30T08:29:56.810Z,120
2016-09-30T08:30:56.839Z,120
2016-09-30T08:31:56.850Z,120
2016-09-30T08:32:56.871Z,125
2016-09-30T08:33:56.887Z,125
2016-09-30T08:34:56.923Z,125
2016-09-30T08:35:56.946Z,125
2016-09-30T08:36:56.978Z,125
2016-09-30T08:37:56.994Z,130
2016-09-30T08:38:57.004Z,130
2016-09-30T08:39:57.027Z,130
2016-09-30T08:40:57.061Z,130
2016-09-30T08:41:57.086Z,125
2016-09-30T08:42:57.130Z,130
2016-09-30T08:43:57.113Z,135
2016-09-30T08:44:57.148Z,140
2016-09-30T08:45:57.156Z,140
2016-09-30T08:46:57.190Z,135
2016-09-30T08:47:57.189Z,130
2016-09-30T08:48:57.272Z,135
2016-09-30T08:49:57.243Z,135
2016-09-30T08:50:57.275Z,135
2016-09-30T08:51:57.282Z,135
2016-09-30T08:52:57.329Z,140
2016-09-30T08:53:57.328Z,140
2016-09-30T08:54:57.371Z,145
2016-09-30T08:55:57.367Z,140
2016-09-30T08:56:57.438Z,140
2016-09-30T08:57:57.400Z,140
2016-09-30T08:58:57.421Z,145
2016-09-30T08:59:57.467Z,145
2016-09-30T09:00:57.453Z,150
2016-09-30T09:01:57.486Z,150
2016-09-30T09:02:57.535Z,150
2016-09-30T09:03:57.524Z,150
2016-09-30T09:04:57.556Z,155
2016-09-30T09:05:57.605Z,160
2016-09-30T09:06:57.596Z,155
2016-09-30T09:07:57.628Z,150
2016-09-30T09:08:57.960Z,145
2016-09-30T09:09:57.662Z,145
2016-09-30T09:10:57.706Z,150
2016-09-30T09:11:57.724Z,150
2016-09-30T09:12:57.732Z,155
2016-09-30T09:13:57.770Z,145
2016-09-30T09:14:57.756Z,140
2016-09-30T09:15:57.824Z,135
2016-09-30T09:16:57.823Z,140
2016-09-30T09:17:57.821Z,140
2016-09-30T09:18:58.050Z,135
2016-09-30T09:19:57.887Z,135
2016-09-30T09:20:57.907Z,135
2016-09-30T09:21:57.949Z,135
2016-09-30T09:22:57.934Z,130
2016-09-30T09:23:57.974Z,135
2016-09-30T09:24:57.983Z,135
2016-09-30T09:25:58.339Z,135
2016-09-30T09:26:58.021Z,135
2016-09-30T09:27:58.052Z,140
2016-09-30T09:28:58.060Z,145
2016-09-30T09:29:58.094Z,150
2016-09-30T09:30:58.181Z,150
2016-09-30T09:31:58.138Z,150
2016-09-30T09:32:58.167Z,155
2016-09-30T09:33:58.182Z,150
2016-09-30T09:34:58.199Z,155
2016-09-30T09:35:58.213Z,155
2016-09-30T09:36:58.240Z,150
2016-09-30T09:37:58.264Z,155
2016-09-30T09:38:58.290Z,160
2016-09-30T09:39:58.318Z,165
2016-09-30T09:40:58.324Z,160
2016-09-30T09:41:58.343Z,155
2016-09-30T09:42:58.373Z,145
2016-09-30T09:43:58.390Z,160
2016-09-30T09:44:58.417Z,160
2016-09-30T09:45:58.423Z,170
2016-09-30T09:46:58.447Z,165
2016-09-30T09:47:58.475Z,160
2016-09-30T09:48:58.500Z,150
2016-09-30T09:49:58.541Z,145
2016-09-30T09:50:58.548Z,145
2016-09-30T09:51:59.291Z,155
2016-09-30T09:52:58.569Z,170
2016-09-30T09:53:58.614Z,165
2016-09-30T09:54:58.631Z,165
2016-09-30T09:55:58.674Z,170
2016-09-30T09:56:58.664Z,175
2016-09-30T09:57:58.705Z,170
2016-09-30T09:58:58.724Z,170
2016-09-30T09:59:58.731Z,170
2016-09-30T10:00:58.745Z,175
2016-09-30T10:01:58.775Z,180
2016-09-30T10:02:58.821Z,180
2016-09-30T10:03:58.817Z,180
2016-09-30T10:04:58.852Z,170
2016-09-30T10:05:58.881Z,165
2016-09-30T10:06:58.888Z,165
2016-09-30T10:07:58.911Z,170
2016-09-30T10:08:58.937Z,185
2016-09-30T10:09:58.965Z,190
2016-09-30T10:10:58.980Z,190
2016-09-30T10:11:59.004Z,195
2016-09-30T10:12:59.022Z,195
2016-09-30T10:13:59.040Z,200
2016-09-30T10:14:59.060Z,215
2016-09-30T10:15:59.096Z,220
2016-09-30T10:16:59.112Z,220
2016-09-30T10:17:59.123Z,205
2016-09-30T10:18:59.154Z,195
2016-09-30T10:19:59.173Z,195
2016-09-30T10:20:59.200Z,195
2016-09-30T10:21:59.224Z,190
2016-09-30T10:22:59.238Z,190
2016-09-30T10:23:59.251Z,190
2016-09-30T10:24:59.298Z,190
2016-09-30T10:25:59.303Z,195
2016-09-30T10:26:59.330Z,190
2016-09-30T10:27:59.352Z,190
2016-09-30T10:28:59.396Z,195
2016-09-30T10:29:59.729Z,210
2016-09-30T10:30:59.420Z,235
2016-09-30T10:31:59.459Z,240
2016-09-30T10:32:59.505Z,240
2016-09-30T10:33:59.498Z,240
2016-09-30T10:34:59.545Z,235
2016-09-30T10:35:59.535Z,195
2016-09-30T10:36:59.606Z,200
2016-09-30T10:37:59.606Z,200
2016-09-30T10:38:59.659Z,190
2016-09-30T10:39:59.623Z,190
2016-09-30T10:40:59.689Z,195
2016-09-30T10:41:59.660Z,205
2016-09-30T10:42:59.688Z,220
2016-09-30T10:43:59.719Z,240
2016-09-30T10:44:59.737Z,235
2016-09-30T10:45:59.763Z,235
2016-09-30T10:46:59.763Z,230
2016-09-30T10:47:59.798Z,230
2016-09-30T10:48:59.810Z,220
2016-09-30T10:49:59.839Z,225
2016-09-30T10:50:59.859Z,225
2016-09-30T10:51:59.883Z,210
2016-09-30T10:52:59.895Z,215
2016-09-30T10:53:59.911Z,230
2016-09-30T10:54:59.987Z,230
2016-09-30T10:56:00.006Z,230
2016-09-30T10:57:00.008Z,220
2016-09-30T10:58:00.024Z,200
2016-09-30T10:59:00.046Z,195
2016-09-30T11:00:00.070Z,185
2016-09-30T11:01:00.077Z,180
2016-09-30T11:02:00.110Z,175
2016-09-30T11:03:00.124Z,175
2016-09-30T11:04:00.157Z,170
2016-09-30T11:05:00.165Z,170
2016-09-30T11:06:00.180Z,165
2016-09-30T11:07:00.224Z,165
2016-09-30T11:08:00.243Z,170
2016-09-30T11:09:00.252Z,175
2016-09-30T11:10:00.291Z,180
2016-09-30T11:11:00.295Z,185
2016-09-30T11:12:00.342Z,200
2016-09-30T11:13:00.353Z,215
2016-09-30T11:14:00.383Z,235
2016-09-30T11:15:00.388Z,240
2016-09-30T11:16:00.413Z,245
2016-09-30T11:17:00.449Z,245
2016-09-30T11:18:00.468Z,240
2016-09-30T11:19:00.480Z,230
2016-09-30T11:20:00.535Z,225
2016-09-30T11:21:00.519Z,220
2016-09-30T11:22:00.542Z,235
2016-09-30T11:23:00.576Z,250
2016-09-30T11:24:00.603Z,245
2016-09-30T11:25:00.658Z,235
2016-09-30T11:26:00.665Z,230
2016-09-30T11:27:00.667Z,225
2016-09-30T11:28:00.691Z,235
2016-09-30T11:29:00.709Z,205
2016-09-30T11:30:00.714Z,190
2016-09-30T11:31:00.774Z,190
2016-09-30T11:32:00.780Z,180
2016-09-30T11:33:00.796Z,170
2016-09-30T11:34:00.867Z,165
2016-09-30T11:35:00.844Z,160
2016-09-30T11:36:00.862Z,165
2016-09-30T11:37:00.884Z,180
2016-09-30T11:38:00.914Z,170
2016-09-30T11:39:00.952Z,180
2016-09-30T11:40:00.976Z,185
2016-09-30T11:41:00.973Z,185
2016-09-30T11:42:01.014Z,190
2016-09-30T11:43:01.002Z,205
2016-09-30T11:44:01.048Z,205
2016-09-30T11:45:01.057Z,205
2016-09-30T11:46:01.094Z,210
2016-09-30T11:47:01.115Z,215
2016-09-30T11:48:01.157Z,220
2016-09-30T11:49:01.152Z,230
2016-09-30T11:50:01.186Z,230
2016-09-30T11:51:01.207Z,225
2016-09-30T11:52:01.566Z,225
2016-09-30T11:53:01.232Z,225
2016-09-30T11:54:01.288Z,225
2016-09-30T11:55:01.296Z,220
2016-09-30T11:56:01.308Z,220
2016-09-30T11:57:01.336Z,210
2016-09-30T11:58:01.372Z,200
2016-09-30T11:59:01.386Z,195
2016-09-30T12:00:01.419Z,200
2016-09-30T12:01:01.431Z,200
2016-09-30T12:02:01.578Z,210
2016-09-30T12:03:01.476Z,205
2016-09-30T12:04:01.501Z,205
2016-09-30T12:05:01.510Z,200
2016-09-30T12:06:01.538Z,195
2016-09-30T12:07:01.568Z,195
2016-09-30T12:08:01.590Z,190
2016-09-30T12:09:01.615Z,185
2016-09-30T12:10:01.632Z,185
2016-09-30T12:11:01.634Z,190
2016-09-30T12:12:01.680Z,190
2016-09-30T12:13:01.736Z,185
2016-09-30T12:14:01.730Z,180
2016-09-30T12:15:01.748Z,170
2016-09-30T12:16:01.791Z,155
2016-09-30T12:17:01.786Z,155
2016-09-30T12:18:01.820Z,160
2016-09-30T12:19:01.896Z,175
2016-09-30T12:20:01.868Z,175
2016-09-30T12:21:01.954Z,180
2016-09-30T12:22:01.889Z,175
2016-09-30T12:23:01.952Z,170
2016-09-30T12:24:01.970Z,175
2016-09-30T12:25:01.998Z,175
2016-09-30T12:26:01.992Z,165
2016-09-30T12:27:02.054Z,160
2016-09-30T12:28:02.040Z,155
2016-09-30T12:29:02.082Z,155
2016-09-30T12:30:02.095Z,155
2016-09-30T12:31:02.117Z,155
2016-09-30T12:32:02.140Z,155
2016-09-30T12:33:02.123Z,160
2016-09-30T12:34:02.205Z,170
2016-09-30T12:35:02.217Z,175
2016-09-30T12:36:02.208Z,180
2016-09-30T12:37:02.241Z,180
2016-09-30T12:38:02.260Z,170
2016-09-30T12:39:02.284Z,170
2016-09-30T12:40:02.323Z,165
2016-09-30T12:41:02.320Z,170
2016-09-30T12:42:02.354Z,175
2016-09-30T12:43:02.395Z,180
2016-09-30T12:44:02.389Z,180
2016-09-30T12:45:02.426Z,185
2016-09-30T12:46:02.426Z,185
2016-09-30T12:47:02.477Z,190
2016-09-30T12:48:02.479Z,190
2016-09-30T12:49:02.507Z,190
2016-09-30T12:50:02.528Z,195
2016-09-30T12:51:02.569Z,195
2016-09-30T12:52:02.569Z,190
2016-09-30T12:53:02.585Z,190
2016-09-30T12:54:02.648Z,190
2016-09-30T12:55:02.650Z,190
2016-09-30T12:56:02.660Z,190
2016-09-30T12:57:02.674Z,190
2016-09-30T12:58:02.744Z,195
2016-09-30T12:59:02.746Z,190
2016-09-30T13:00:02.804Z,190
2016-09-30T13:01:02.810Z,200
2016-09-30T13:02:02.815Z,205
2016-09-30T13:03:02.809Z,205
2016-09-30T13:04:02.843Z,215
2016-09-30T13:05:02.848Z,215
2016-09-30T13:06:02.882Z,210
2016-09-30T13:07:02.924Z,215
2016-09-30T13:08:02.938Z,195
2016-09-30T13:09:02.936Z,180
2016-09-30T13:10:02.972Z,165
2016-09-30T13:11:02.999Z,160
2016-09-30T13:12:03.005Z,155
2016-09-30T13:13:03.050Z,155
2016-09-30T13:14:03.059Z,150
2016-09-30T13:15:03.097Z,150
2016-09-30T13:16:03.103Z,160
2016-09-30T13:17:03.128Z,165
2016-09-30T13:18:03.169Z,170
2016-09-30T13:19:03.171Z,170
2016-09-30T13:20:03.208Z,170
2016-09-30T13:21:03.219Z,185
2016-09-30T13:22:03.240Z,190
2016-09-30T13:23:03.266Z,205
2016-09-30T13:24:03.289Z,195
2016-09-30T13:25:03.313Z,200
2016-09-30T13:26:03.343Z,195
2016-09-30T13:27:03.361Z,185
2016-09-30T13:28:03.377Z,170
2016-09-30T13:29:03.390Z,165
2016-09-30T13:30:03.421Z,165
2016-09-30T13:31:03.452Z,160
2016-09-30T13:32:03.465Z,150
2016-09-30T13:33:03.497Z,150
2016-09-30T13:34:03.501Z,150
2016-09-30T13:35:03.535Z,145
2016-09-30T13:36:03.552Z,150
2016-09-30T13:37:03.588Z,150
2016-09-30T13:38:03.630Z,150
2016-09-30T13:39:03.636Z,150
2016-09-30T13:40:03.676Z,165
2016-09-30T13:41:03.677Z,165
2016-09-30T13:42:03.689Z,165
2016-09-30T13:43:03.709Z,165
2016-09-30T13:44:03.735Z,155
2016-09-30T13:45:03.750Z,150
2016-09-30T13:46:03.782Z,145
2016-09-30T13:47:03.801Z,140
2016-09-30T13:48:03.828Z,140
2016-09-30T13:49:03.864Z,140
2016-09-30T13:50:03.864Z,150
2016-09-30T13:51:03.883Z,150
2016-09-30T13:52:04.366Z,160
2016-09-30T13:53:03.925Z,155
2016-09-30T13:54:03.941Z,160
2016-09-30T13:55:03.963Z,175
2016-09-30T13:56:04.007Z,175
2016-09-30T13:57:04.011Z,165
2016-09-30T13:58:04.045Z,160
2016-09-30T13:59:04.099Z,170
2016-09-30T14:00:04.077Z,170
2016-09-30T14:01:04.096Z,150
2016-09-30T14:02:04.130Z,150
2016-09-30T14:03:04.219Z,170
2016-09-30T14:04:04.163Z,155
2016-09-30T14:05:04.263Z,150
2016-09-30T14:06:04.221Z,145
2016-09-30T14:07:04.313Z,170
2016-09-30T14:08:04.270Z,180
2016-09-30T14:09:04.323Z,170
2016-09-30T14:10:04.315Z,155
2016-09-30T14:11:04.347Z,150
2016-09-30T14:12:04.347Z,145
2016-09-30T14:13:04.443Z,140
2016-09-30T14:14:04.395Z,135
2016-09-30T14:15:04.448Z,135
2016-09-30T14:16:04.452Z,130
2016-09-30T14:17:04.472Z,130